sensor_id;sensor_type;location;lat;lon;timestamp;P1;durP1;ratioP1;P2;durP2;ratioP2
13197;SDS011;6664;52.514;13.440;2022-12-29T00:01:16;0.80;;;0.80;;
13197;SDS011;6664;52.514;13.440;2022-12-29T00:04:07;1.23;;;1.23;;
13197;SDS011;6664;52.514;13.440;2022-12-29T00:07:00;2.80;;;1.10;;
13197;SDS011;6664;52.514;13.440;2022-12-29T00:09:45;1.97;;;1.03;;
13197;SDS011;6664;52.514;13.440;2022-12-29T00:12:31;1.40;;;1.30;;
13197;SDS011;6664;52.514;13.440;2022-12-29T00:15:37;1.10;;;1.10;;
13197;SDS011;6664;52.514;13.440;2022-12-29T00:18:22;2.60;;;1.40;;
13197;SDS011;6664;52.514;13.440;2022-12-29T00:21:10;1.40;;;1.30;;
13197;SDS011;6664;52.514;13.440;2022-12-29T00:24:18;0.90;;;0.90;;
13197;SDS011;6664;52.514;13.440;2022-12-29T00:27:12;2.20;;;1.03;;
13197;SDS011;6664;52.514;13.440;2022-12-29T00:30:18;2.20;;;1.20;;
13197;SDS011;6664;52.514;13.440;2022-12-29T00:33:30;1.40;;;1.30;;
13197;SDS011;6664;52.514;13.440;2022-12-29T00:36:39;2.07;;;1.00;;
13197;SDS011;6664;52.514;13.440;2022-12-29T00:39:27;1.70;;;1.23;;
13197;SDS011;6664;52.514;13.440;2022-12-29T00:42:31;1.30;;;1.20;;
13197;SDS011;6664;52.514;13.440;2022-12-29T00:45:35;1.17;;;1.07;;
13197;SDS011;6664;52.514;13.440;2022-12-29T00:48:20;4.47;;;1.10;;
13197;SDS011;6664;52.514;13.440;2022-12-29T00:51:25;1.40;;;1.13;;
13197;SDS011;6664;52.514;13.440;2022-12-29T00:54:11;1.03;;;1.03;;
13197;SDS011;6664;52.514;13.440;2022-12-29T00:56:58;1.00;;;0.90;;
13197;SDS011;6664;52.514;13.440;2022-12-29T00:59:44;5.87;;;1.00;;
13197;SDS011;6664;52.514;13.440;2022-12-29T01:02:33;1.10;;;1.00;;
13197;SDS011;6664;52.514;13.440;2022-12-29T01:05:18;2.27;;;0.90;;
13197;SDS011;6664;52.514;13.440;2022-12-29T01:08:04;1.07;;;1.03;;
13197;SDS011;6664;52.514;13.440;2022-12-29T01:10:57;0.80;;;0.80;;
13197;SDS011;6664;52.514;13.440;2022-12-29T01:13:43;3.23;;;1.40;;
13197;SDS011;6664;52.514;13.440;2022-12-29T01:16:29;1.20;;;1.10;;
13197;SDS011;6664;52.514;13.440;2022-12-29T01:19:15;8.07;;;1.87;;
13197;SDS011;6664;52.514;13.440;2022-12-29T01:22:02;0.80;;;0.80;;
13197;SDS011;6664;52.514;13.440;2022-12-29T01:24:47;2.13;;;1.30;;
13197;SDS011;6664;52.514;13.440;2022-12-29T01:27:34;1.33;;;1.20;;
13197;SDS011;6664;52.514;13.440;2022-12-29T01:30:22;1.30;;;1.17;;
13197;SDS011;6664;52.514;13.440;2022-12-29T01:33:10;1.40;;;1.30;;
13197;SDS011;6664;52.514;13.440;2022-12-29T01:35:59;1.63;;;1.50;;
13197;SDS011;6664;52.514;13.440;2022-12-29T01:38:49;1.10;;;1.10;;
13197;SDS011;6664;52.514;13.440;2022-12-29T01:41:35;1.20;;;1.20;;
13197;SDS011;6664;52.514;13.440;2022-12-29T01:47:43;1.33;;;1.23;;
13197;SDS011;6664;52.514;13.440;2022-12-29T01:50:35;1.53;;;1.20;;
13197;SDS011;6664;52.514;13.440;2022-12-29T01:53:27;1.70;;;1.60;;
13197;SDS011;6664;52.514;13.440;2022-12-29T01:56:18;1.73;;;1.33;;
13197;SDS011;6664;52.514;13.440;2022-12-29T01:59:06;1.20;;;1.10;;
13197;SDS011;6664;52.514;13.440;2022-12-29T02:01:56;1.23;;;1.13;;
13197;SDS011;6664;52.514;13.440;2022-12-29T02:04:42;1.10;;;1.10;;
13197;SDS011;6664;52.514;13.440;2022-12-29T02:07:31;1.47;;;1.27;;
13197;SDS011;6664;52.514;13.440;2022-12-29T02:10:18;5.00;;;1.10;;
13197;SDS011;6664;52.514;13.440;2022-12-29T02:13:08;2.13;;;1.40;;
13197;SDS011;6664;52.514;13.440;2022-12-29T02:16:04;2.47;;;1.40;;
13197;SDS011;6664;52.514;13.440;2022-12-29T02:38:17;0.80;;;0.80;;
13197;SDS011;6664;52.514;13.440;2022-12-29T02:41:21;0.80;;;0.80;;
13197;SDS011;6664;52.514;13.440;2022-12-29T02:53:14;2.27;;;1.37;;
13197;SDS011;6664;52.514;13.440;2022-12-29T02:56:22;1.27;;;1.20;;
13197;SDS011;6664;52.514;13.440;2022-12-29T02:59:08;2.10;;;1.00;;
13197;SDS011;6664;52.514;13.440;2022-12-29T03:11:12;2.67;;;0.90;;
13197;SDS011;6664;52.514;13.440;2022-12-29T03:14:32;1.20;;;1.10;;
13197;SDS011;6664;52.514;13.440;2022-12-29T03:17:55;1.00;;;1.00;;
13197;SDS011;6664;52.514;13.440;2022-12-29T03:20:49;0.80;;;0.80;;
13197;SDS011;6664;52.514;13.440;2022-12-29T03:23:41;1.00;;;1.00;;
13197;SDS011;6664;52.514;13.440;2022-12-29T03:26:32;0.80;;;0.80;;
13197;SDS011;6664;52.514;13.440;2022-12-29T03:29:18;1.20;;;1.10;;
13197;SDS011;6664;52.514;13.440;2022-12-29T03:32:05;2.00;;;1.00;;
13197;SDS011;6664;52.514;13.440;2022-12-29T03:34:53;1.20;;;1.00;;
13197;SDS011;6664;52.514;13.440;2022-12-29T03:37:43;1.50;;;0.90;;
13197;SDS011;6664;52.514;13.440;2022-12-29T03:40:37;2.07;;;1.20;;
13197;SDS011;6664;52.514;13.440;2022-12-29T03:43:26;1.03;;;0.93;;
13197;SDS011;6664;52.514;13.440;2022-12-29T03:46:15;1.23;;;1.13;;
13197;SDS011;6664;52.514;13.440;2022-12-29T03:49:02;1.83;;;1.13;;
13197;SDS011;6664;52.514;13.440;2022-12-29T03:51:50;1.63;;;1.03;;
13197;SDS011;6664;52.514;13.440;2022-12-29T03:54:36;2.40;;;0.97;;
13197;SDS011;6664;52.514;13.440;2022-12-29T03:57:21;0.97;;;0.90;;
13197;SDS011;6664;52.514;13.440;2022-12-29T04:00:07;1.23;;;1.17;;
13197;SDS011;6664;52.514;13.440;2022-12-29T04:02:56;2.00;;;1.20;;
13197;SDS011;6664;52.514;13.440;2022-12-29T04:05:42;1.20;;;1.10;;
13197;SDS011;6664;52.514;13.440;2022-12-29T04:08:28;0.83;;;0.83;;
13197;SDS011;6664;52.514;13.440;2022-12-29T04:11:13;5.80;;;1.43;;
13197;SDS011;6664;52.514;13.440;2022-12-29T04:13:59;1.00;;;0.97;;
13197;SDS011;6664;52.514;13.440;2022-12-29T04:16:44;1.00;;;1.00;;
13197;SDS011;6664;52.514;13.440;2022-12-29T04:19:35;1.43;;;1.30;;
13197;SDS011;6664;52.514;13.440;2022-12-29T04:22:21;1.07;;;1.00;;
13197;SDS011;6664;52.514;13.440;2022-12-29T04:25:09;1.70;;;1.60;;
13197;SDS011;6664;52.514;13.440;2022-12-29T04:27:58;1.13;;;1.00;;
13197;SDS011;6664;52.514;13.440;2022-12-29T04:30:44;1.67;;;1.00;;
13197;SDS011;6664;52.514;13.440;2022-12-29T04:33:30;2.13;;;1.20;;
13197;SDS011;6664;52.514;13.440;2022-12-29T04:36:15;0.90;;;0.90;;
13197;SDS011;6664;52.514;13.440;2022-12-29T04:39:02;2.50;;;1.00;;
13197;SDS011;6664;52.514;13.440;2022-12-29T04:41:52;1.07;;;0.83;;
13197;SDS011;6664;52.514;13.440;2022-12-29T04:44:37;1.20;;;1.10;;
13197;SDS011;6664;52.514;13.440;2022-12-29T04:47:29;2.40;;;1.27;;
13197;SDS011;6664;52.514;13.440;2022-12-29T04:50:14;4.37;;;1.17;;
13197;SDS011;6664;52.514;13.440;2022-12-29T04:53:02;1.47;;;1.37;;
13197;SDS011;6664;52.514;13.440;2022-12-29T04:55:51;0.80;;;0.73;;
13197;SDS011;6664;52.514;13.440;2022-12-29T04:58:37;3.63;;;1.47;;
13197;SDS011;6664;52.514;13.440;2022-12-29T05:01:22;1.00;;;1.00;;
13197;SDS011;6664;52.514;13.440;2022-12-29T05:04:11;1.10;;;0.87;;
13197;SDS011;6664;52.514;13.440;2022-12-29T05:06:57;1.30;;;1.30;;
13197;SDS011;6664;52.514;13.440;2022-12-29T05:09:43;1.00;;;1.00;;
13197;SDS011;6664;52.514;13.440;2022-12-29T05:12:32;1.00;;;0.90;;
13197;SDS011;6664;52.514;13.440;2022-12-29T05:15:18;1.13;;;1.07;;
13197;SDS011;6664;52.514;13.440;2022-12-29T05:18:04;1.63;;;0.90;;
13197;SDS011;6664;52.514;13.440;2022-12-29T05:20:52;0.90;;;0.90;;
13197;SDS011;6664;52.514;13.440;2022-12-29T05:23:39;1.70;;;1.07;;
13197;SDS011;6664;52.514;13.440;2022-12-29T05:26:25;1.37;;;1.27;;
13197;SDS011;6664;52.514;13.440;2022-12-29T05:29:14;1.30;;;1.20;;
13197;SDS011;6664;52.514;13.440;2022-12-29T05:32:02;2.57;;;1.03;;
13197;SDS011;6664;52.514;13.440;2022-12-29T05:34:50;1.40;;;1.30;;
13197;SDS011;6664;52.514;13.440;2022-12-29T05:37:36;1.83;;;1.33;;
13197;SDS011;6664;52.514;13.440;2022-12-29T05:40:22;1.23;;;1.13;;
13197;SDS011;6664;52.514;13.440;2022-12-29T05:43:07;1.37;;;1.00;;
13197;SDS011;6664;52.514;13.440;2022-12-29T05:45:53;1.17;;;0.90;;
13197;SDS011;6664;52.514;13.440;2022-12-29T05:48:39;1.03;;;0.90;;
13197;SDS011;6664;52.514;13.440;2022-12-29T05:51:27;1.00;;;1.00;;
13197;SDS011;6664;52.514;13.440;2022-12-29T05:54:13;1.30;;;1.20;;
13197;SDS011;6664;52.514;13.440;2022-12-29T05:56:59;1.07;;;1.00;;
13197;SDS011;6664;52.514;13.440;2022-12-29T05:59:47;1.17;;;1.00;;
13197;SDS011;6664;52.514;13.440;2022-12-29T06:02:32;1.53;;;1.37;;
13197;SDS011;6664;52.514;13.440;2022-12-29T06:05:18;1.10;;;1.00;;
13197;SDS011;6664;52.514;13.440;2022-12-29T06:08:06;1.17;;;1.10;;
13197;SDS011;6664;52.514;13.440;2022-12-29T06:10:52;1.10;;;1.10;;
13197;SDS011;6664;52.514;13.440;2022-12-29T06:13:38;1.10;;;0.93;;
13197;SDS011;6664;52.514;13.440;2022-12-29T06:16:24;1.10;;;1.10;;
13197;SDS011;6664;52.514;13.440;2022-12-29T06:19:09;0.97;;;0.97;;
13197;SDS011;6664;52.514;13.440;2022-12-29T06:21:55;0.83;;;0.83;;
13197;SDS011;6664;52.514;13.440;2022-12-29T06:24:40;0.60;;;0.60;;
13197;SDS011;6664;52.514;13.440;2022-12-29T06:27:27;1.10;;;1.10;;
13197;SDS011;6664;52.514;13.440;2022-12-29T06:30:14;1.83;;;1.00;;
13197;SDS011;6664;52.514;13.440;2022-12-29T06:33:00;1.90;;;0.87;;
13197;SDS011;6664;52.514;13.440;2022-12-29T06:35:48;1.00;;;1.00;;
13197;SDS011;6664;52.514;13.440;2022-12-29T06:38:34;1.30;;;1.20;;
13197;SDS011;6664;52.514;13.440;2022-12-29T06:41:20;0.80;;;0.80;;
13197;SDS011;6664;52.514;13.440;2022-12-29T06:44:13;1.37;;;0.80;;
13197;SDS011;6664;52.514;13.440;2022-12-29T06:47:01;1.20;;;1.10;;
13197;SDS011;6664;52.514;13.440;2022-12-29T06:49:47;1.00;;;0.90;;
13197;SDS011;6664;52.514;13.440;2022-12-29T06:52:32;2.20;;;1.03;;
13197;SDS011;6664;52.514;13.440;2022-12-29T06:55:18;3.60;;;0.80;;
13197;SDS011;6664;52.514;13.440;2022-12-29T06:58:04;0.80;;;0.80;;
13197;SDS011;6664;52.514;13.440;2022-12-29T07:00:49;0.87;;;0.80;;
13197;SDS011;6664;52.514;13.440;2022-12-29T07:03:35;0.80;;;0.80;;
13197;SDS011;6664;52.514;13.440;2022-12-29T07:06:21;0.80;;;0.80;;
13197;SDS011;6664;52.514;13.440;2022-12-29T07:09:09;0.90;;;0.90;;
13197;SDS011;6664;52.514;13.440;2022-12-29T07:11:54;2.40;;;1.23;;
13197;SDS011;6664;52.514;13.440;2022-12-29T07:14:40;1.83;;;1.30;;
13197;SDS011;6664;52.514;13.440;2022-12-29T07:17:27;1.10;;;1.00;;
13197;SDS011;6664;52.514;13.440;2022-12-29T07:20:13;0.90;;;0.90;;
13197;SDS011;6664;52.514;13.440;2022-12-29T07:22:58;1.13;;;0.90;;
13197;SDS011;6664;52.514;13.440;2022-12-29T07:25:46;1.30;;;1.20;;
13197;SDS011;6664;52.514;13.440;2022-12-29T07:28:34;1.17;;;1.07;;
13197;SDS011;6664;52.514;13.440;2022-12-29T07:31:22;1.30;;;1.20;;
13197;SDS011;6664;52.514;13.440;2022-12-29T07:34:10;1.43;;;1.10;;
13197;SDS011;6664;52.514;13.440;2022-12-29T07:36:56;2.80;;;0.93;;
13197;SDS011;6664;52.514;13.440;2022-12-29T07:39:41;1.10;;;1.00;;
13197;SDS011;6664;52.514;13.440;2022-12-29T07:42:27;0.80;;;0.80;;
13197;SDS011;6664;52.514;13.440;2022-12-29T07:45:12;0.90;;;0.80;;
13197;SDS011;6664;52.514;13.440;2022-12-29T07:47:58;1.00;;;1.00;;
13197;SDS011;6664;52.514;13.440;2022-12-29T07:50:44;1.20;;;1.10;;
13197;SDS011;6664;52.514;13.440;2022-12-29T07:53:30;1.07;;;0.97;;
13197;SDS011;6664;52.514;13.440;2022-12-29T07:56:15;1.60;;;1.27;;
13197;SDS011;6664;52.514;13.440;2022-12-29T07:59:03;0.90;;;0.90;;
13197;SDS011;6664;52.514;13.440;2022-12-29T08:01:49;1.50;;;1.00;;
13197;SDS011;6664;52.514;13.440;2022-12-29T08:04:35;1.07;;;1.00;;
13197;SDS011;6664;52.514;13.440;2022-12-29T08:07:21;1.03;;;0.93;;
13197;SDS011;6664;52.514;13.440;2022-12-29T08:10:10;1.00;;;1.00;;
13197;SDS011;6664;52.514;13.440;2022-12-29T08:13:00;0.90;;;0.90;;
13197;SDS011;6664;52.514;13.440;2022-12-29T08:15:46;0.80;;;0.80;;
13197;SDS011;6664;52.514;13.440;2022-12-29T08:18:32;1.00;;;0.90;;
13197;SDS011;6664;52.514;13.440;2022-12-29T08:21:17;3.87;;;1.00;;
13197;SDS011;6664;52.514;13.440;2022-12-29T08:24:03;0.90;;;0.90;;
13197;SDS011;6664;52.514;13.440;2022-12-29T08:26:51;1.30;;;1.07;;
13197;SDS011;6664;52.514;13.440;2022-12-29T08:29:37;0.80;;;0.80;;
13197;SDS011;6664;52.514;13.440;2022-12-29T08:32:23;0.80;;;0.80;;
13197;SDS011;6664;52.514;13.440;2022-12-29T08:35:11;0.97;;;0.80;;
13197;SDS011;6664;52.514;13.440;2022-12-29T08:37:57;0.97;;;0.90;;
13197;SDS011;6664;52.514;13.440;2022-12-29T08:40:43;1.50;;;1.20;;
13197;SDS011;6664;52.514;13.440;2022-12-29T08:43:29;1.07;;;1.03;;
13197;SDS011;6664;52.514;13.440;2022-12-29T08:46:14;1.27;;;1.17;;
13197;SDS011;6664;52.514;13.440;2022-12-29T08:49:01;3.60;;;0.90;;
13197;SDS011;6664;52.514;13.440;2022-12-29T08:51:48;1.00;;;0.90;;
13197;SDS011;6664;52.514;13.440;2022-12-29T08:54:35;1.07;;;1.07;;
13197;SDS011;6664;52.514;13.440;2022-12-29T08:57:21;1.73;;;1.50;;
13197;SDS011;6664;52.514;13.440;2022-12-29T09:00:07;0.90;;;0.90;;
13197;SDS011;6664;52.514;13.440;2022-12-29T09:02:54;1.20;;;1.10;;
13197;SDS011;6664;52.514;13.440;2022-12-29T09:05:40;2.17;;;1.30;;
13197;SDS011;6664;52.514;13.440;2022-12-29T09:08:29;2.07;;;1.30;;
13197;SDS011;6664;52.514;13.440;2022-12-29T09:11:19;1.03;;;1.03;;
13197;SDS011;6664;52.514;13.440;2022-12-29T09:14:08;0.80;;;0.80;;
13197;SDS011;6664;52.514;13.440;2022-12-29T09:16:54;1.23;;;1.23;;
13197;SDS011;6664;52.514;13.440;2022-12-29T09:19:58;1.10;;;1.00;;
13197;SDS011;6664;52.514;13.440;2022-12-29T09:22:44;0.90;;;0.90;;
13197;SDS011;6664;52.514;13.440;2022-12-29T09:25:30;1.10;;;0.97;;
13197;SDS011;6664;52.514;13.440;2022-12-29T09:28:18;0.90;;;0.90;;
13197;SDS011;6664;52.514;13.440;2022-12-29T09:31:05;1.27;;;1.10;;
13197;SDS011;6664;52.514;13.440;2022-12-29T09:33:50;1.50;;;1.30;;
13197;SDS011;6664;52.514;13.440;2022-12-29T09:36:36;0.90;;;0.90;;
13197;SDS011;6664;52.514;13.440;2022-12-29T09:39:22;1.03;;;0.93;;
13197;SDS011;6664;52.514;13.440;2022-12-29T09:45:15;0.83;;;0.83;;
13197;SDS011;6664;52.514;13.440;2022-12-29T09:48:06;1.20;;;1.10;;
13197;SDS011;6664;52.514;13.440;2022-12-29T09:51:02;4.40;;;1.30;;
13197;SDS011;6664;52.514;13.440;2022-12-29T09:53:56;1.10;;;1.10;;
13197;SDS011;6664;52.514;13.440;2022-12-29T09:56:45;0.80;;;0.80;;
13197;SDS011;6664;52.514;13.440;2022-12-29T09:59:41;1.10;;;1.03;;
13197;SDS011;6664;52.514;13.440;2022-12-29T10:05:23;3.00;;;0.90;;
13197;SDS011;6664;52.514;13.440;2022-12-29T10:11:32;2.93;;;0.90;;
13197;SDS011;6664;52.514;13.440;2022-12-29T10:14:51;1.53;;;1.23;;
13197;SDS011;6664;52.514;13.440;2022-12-29T10:21:25;1.10;;;1.00;;
13197;SDS011;6664;52.514;13.440;2022-12-29T10:24:17;1.10;;;0.97;;
13197;SDS011;6664;52.514;13.440;2022-12-29T10:27:10;0.90;;;0.90;;
13197;SDS011;6664;52.514;13.440;2022-12-29T10:29:58;1.77;;;1.07;;
13197;SDS011;6664;52.514;13.440;2022-12-29T10:32:53;1.70;;;1.20;;
13197;SDS011;6664;52.514;13.440;2022-12-29T10:35:44;1.00;;;1.00;;
13197;SDS011;6664;52.514;13.440;2022-12-29T10:38:37;1.00;;;1.00;;
13197;SDS011;6664;52.514;13.440;2022-12-29T10:41:39;0.83;;;0.80;;
13197;SDS011;6664;52.514;13.440;2022-12-29T10:44:29;1.27;;;1.17;;
13197;SDS011;6664;52.514;13.440;2022-12-29T10:47:17;0.80;;;0.80;;
13197;SDS011;6664;52.514;13.440;2022-12-29T10:50:05;3.60;;;1.20;;
13197;SDS011;6664;52.514;13.440;2022-12-29T10:52:51;4.30;;;1.00;;
13197;SDS011;6664;52.514;13.440;2022-12-29T10:55:37;2.13;;;0.87;;
13197;SDS011;6664;52.514;13.440;2022-12-29T10:58:26;3.40;;;0.97;;
13197;SDS011;6664;52.514;13.440;2022-12-29T11:01:14;1.07;;;1.07;;
13197;SDS011;6664;52.514;13.440;2022-12-29T11:04:03;1.13;;;0.83;;
13197;SDS011;6664;52.514;13.440;2022-12-29T11:07:05;1.03;;;0.80;;
13197;SDS011;6664;52.514;13.440;2022-12-29T11:10:16;1.30;;;0.80;;
13197;SDS011;6664;52.514;13.440;2022-12-29T11:13:04;1.10;;;1.00;;
13197;SDS011;6664;52.514;13.440;2022-12-29T11:16:00;2.00;;;0.90;;
13197;SDS011;6664;52.514;13.440;2022-12-29T11:18:47;2.00;;;1.00;;
13197;SDS011;6664;52.514;13.440;2022-12-29T11:21:37;4.13;;;1.43;;
13197;SDS011;6664;52.514;13.440;2022-12-29T11:24:27;1.10;;;1.00;;
13197;SDS011;6664;52.514;13.440;2022-12-29T11:27:18;3.87;;;0.70;;
13197;SDS011;6664;52.514;13.440;2022-12-29T11:30:21;3.27;;;1.10;;
13197;SDS011;6664;52.514;13.440;2022-12-29T11:33:09;2.10;;;0.83;;
13197;SDS011;6664;52.514;13.440;2022-12-29T11:36:06;1.60;;;0.97;;
13197;SDS011;6664;52.514;13.440;2022-12-29T11:39:01;2.00;;;1.07;;
13197;SDS011;6664;52.514;13.440;2022-12-29T11:41:54;1.30;;;1.00;;
13197;SDS011;6664;52.514;13.440;2022-12-29T11:44:44;3.63;;;0.97;;
13197;SDS011;6664;52.514;13.440;2022-12-29T11:47:32;0.77;;;0.77;;
13197;SDS011;6664;52.514;13.440;2022-12-29T11:50:19;0.70;;;0.70;;
13197;SDS011;6664;52.514;13.440;2022-12-29T11:53:28;0.90;;;0.90;;
13197;SDS011;6664;52.514;13.440;2022-12-29T11:56:17;0.77;;;0.77;;
13197;SDS011;6664;52.514;13.440;2022-12-29T11:59:48;1.00;;;0.87;;
13197;SDS011;6664;52.514;13.440;2022-12-29T12:08:01;0.63;;;0.63;;
13197;SDS011;6664;52.514;13.440;2022-12-29T12:10:57;0.70;;;0.70;;
13197;SDS011;6664;52.514;13.440;2022-12-29T12:13:55;0.90;;;0.87;;
13197;SDS011;6664;52.514;13.440;2022-12-29T12:16:46;2.60;;;1.10;;
13197;SDS011;6664;52.514;13.440;2022-12-29T12:22:43;1.23;;;0.90;;
13197;SDS011;6664;52.514;13.440;2022-12-29T12:25:37;1.00;;;0.90;;
13197;SDS011;6664;52.514;13.440;2022-12-29T12:28:39;2.57;;;0.80;;
13197;SDS011;6664;52.514;13.440;2022-12-29T12:34:41;0.77;;;0.77;;
13197;SDS011;6664;52.514;13.440;2022-12-29T12:43:27;1.00;;;1.00;;
13197;SDS011;6664;52.514;13.440;2022-12-29T12:46:46;1.10;;;0.80;;
13197;SDS011;6664;52.514;13.440;2022-12-29T12:53:10;0.80;;;0.80;;
13197;SDS011;6664;52.514;13.440;2022-12-29T12:59:36;1.17;;;1.03;;
13197;SDS011;6664;52.514;13.440;2022-12-29T13:11:55;1.17;;;1.10;;
13197;SDS011;6664;52.514;13.440;2022-12-29T13:19:13;4.00;;;0.90;;
13197;SDS011;6664;52.514;13.440;2022-12-29T13:27:29;0.80;;;0.80;;
13197;SDS011;6664;52.514;13.440;2022-12-29T13:30:22;1.93;;;1.00;;
13197;SDS011;6664;52.514;13.440;2022-12-29T13:33:33;4.83;;;1.30;;
13197;SDS011;6664;52.514;13.440;2022-12-29T13:36:42;1.07;;;1.00;;
13197;SDS011;6664;52.514;13.440;2022-12-29T13:42:21;2.03;;;0.90;;
13197;SDS011;6664;52.514;13.440;2022-12-29T13:45:16;1.10;;;1.00;;
13197;SDS011;6664;52.514;13.440;2022-12-29T13:48:19;1.17;;;1.07;;
13197;SDS011;6664;52.514;13.440;2022-12-29T13:51:10;1.00;;;1.00;;
13197;SDS011;6664;52.514;13.440;2022-12-29T13:57:41;0.80;;;0.80;;
13197;SDS011;6664;52.514;13.440;2022-12-29T14:00:58;2.40;;;1.10;;
13197;SDS011;6664;52.514;13.440;2022-12-29T14:03:52;1.13;;;1.03;;
13197;SDS011;6664;52.514;13.440;2022-12-29T14:06:39;3.97;;;1.17;;
13197;SDS011;6664;52.514;13.440;2022-12-29T14:12:43;0.90;;;0.90;;
13197;SDS011;6664;52.514;13.440;2022-12-29T14:15:29;1.40;;;1.30;;
13197;SDS011;6664;52.514;13.440;2022-12-29T14:18:19;1.47;;;1.10;;
13197;SDS011;6664;52.514;13.440;2022-12-29T14:24:00;1.40;;;1.30;;
13197;SDS011;6664;52.514;13.440;2022-12-29T14:33:37;1.27;;;1.17;;
13197;SDS011;6664;52.514;13.440;2022-12-29T14:39:30;2.20;;;1.30;;
13197;SDS011;6664;52.514;13.440;2022-12-29T14:42:26;1.23;;;1.13;;
13197;SDS011;6664;52.514;13.440;2022-12-29T14:48:01;1.40;;;1.30;;
13197;SDS011;6664;52.514;13.440;2022-12-29T14:51:27;1.50;;;1.40;;
13197;SDS011;6664;52.514;13.440;2022-12-29T14:57:33;1.53;;;1.30;;
13197;SDS011;6664;52.514;13.440;2022-12-29T15:00:34;1.20;;;1.10;;
13197;SDS011;6664;52.514;13.440;2022-12-29T15:06:14;7.07;;;1.30;;
13197;SDS011;6664;52.514;13.440;2022-12-29T15:09:04;2.10;;;1.60;;
13197;SDS011;6664;52.514;13.440;2022-12-29T15:12:01;2.00;;;1.47;;
13197;SDS011;6664;52.514;13.440;2022-12-29T15:15:38;5.17;;;1.50;;
13197;SDS011;6664;52.514;13.440;2022-12-29T15:21:17;1.77;;;1.30;;
13197;SDS011;6664;52.514;13.440;2022-12-29T15:24:09;1.43;;;1.33;;
13197;SDS011;6664;52.514;13.440;2022-12-29T15:26:58;1.50;;;1.40;;
13197;SDS011;6664;52.514;13.440;2022-12-29T15:29:55;8.23;;;1.33;;
13197;SDS011;6664;52.514;13.440;2022-12-29T15:33:02;1.57;;;1.10;;
13197;SDS011;6664;52.514;13.440;2022-12-29T15:35:51;3.80;;;1.73;;
13197;SDS011;6664;52.514;13.440;2022-12-29T15:38:39;0.90;;;0.90;;
13197;SDS011;6664;52.514;13.440;2022-12-29T15:44:45;6.33;;;1.10;;
13197;SDS011;6664;52.514;13.440;2022-12-29T15:47:35;1.50;;;1.37;;
13197;SDS011;6664;52.514;13.440;2022-12-29T15:50:30;1.73;;;1.50;;
13197;SDS011;6664;52.514;13.440;2022-12-29T15:53:26;2.80;;;1.50;;
13197;SDS011;6664;52.514;13.440;2022-12-29T15:56:15;4.23;;;1.87;;
13197;SDS011;6664;52.514;13.440;2022-12-29T15:59:01;4.83;;;2.67;;
13197;SDS011;6664;52.514;13.440;2022-12-29T16:01:47;4.90;;;1.70;;
13197;SDS011;6664;52.514;13.440;2022-12-29T16:04:33;1.60;;;1.40;;
13197;SDS011;6664;52.514;13.440;2022-12-29T16:07:41;2.00;;;1.80;;
13197;SDS011;6664;52.514;13.440;2022-12-29T16:10:41;1.80;;;1.70;;
13197;SDS011;6664;52.514;13.440;2022-12-29T16:13:32;2.20;;;2.00;;
13197;SDS011;6664;52.514;13.440;2022-12-29T16:19:25;1.97;;;1.87;;
13197;SDS011;6664;52.514;13.440;2022-12-29T16:22:20;3.73;;;1.67;;
13197;SDS011;6664;52.514;13.440;2022-12-29T16:28:14;1.60;;;1.50;;
13197;SDS011;6664;52.514;13.440;2022-12-29T16:31:06;2.73;;;1.90;;
13197;SDS011;6664;52.514;13.440;2022-12-29T16:34:24;1.90;;;1.10;;
13197;SDS011;6664;52.514;13.440;2022-12-29T16:37:27;1.20;;;1.10;;
13197;SDS011;6664;52.514;13.440;2022-12-29T16:40:23;2.40;;;1.30;;
13197;SDS011;6664;52.514;13.440;2022-12-29T16:43:25;2.03;;;1.83;;
13197;SDS011;6664;52.514;13.440;2022-12-29T16:46:21;1.00;;;0.93;;
13197;SDS011;6664;52.514;13.440;2022-12-29T16:49:15;1.20;;;1.10;;
13197;SDS011;6664;52.514;13.440;2022-12-29T16:52:16;1.40;;;1.30;;
13197;SDS011;6664;52.514;13.440;2022-12-29T16:55:18;2.13;;;1.50;;
13197;SDS011;6664;52.514;13.440;2022-12-29T16:58:05;2.07;;;1.30;;
13197;SDS011;6664;52.514;13.440;2022-12-29T17:00:51;4.10;;;2.00;;
13197;SDS011;6664;52.514;13.440;2022-12-29T17:03:44;2.30;;;1.40;;
13197;SDS011;6664;52.514;13.440;2022-12-29T17:06:35;1.27;;;1.20;;
13197;SDS011;6664;52.514;13.440;2022-12-29T17:09:21;0.90;;;0.90;;
13197;SDS011;6664;52.514;13.440;2022-12-29T17:12:13;3.23;;;1.13;;
13197;SDS011;6664;52.514;13.440;2022-12-29T17:15:03;0.97;;;0.97;;
13197;SDS011;6664;52.514;13.440;2022-12-29T17:17:57;3.80;;;1.43;;
13197;SDS011;6664;52.514;13.440;2022-12-29T17:20:44;2.03;;;1.50;;
13197;SDS011;6664;52.514;13.440;2022-12-29T17:23:30;1.30;;;1.20;;
13197;SDS011;6664;52.514;13.440;2022-12-29T17:26:19;1.37;;;1.27;;
13197;SDS011;6664;52.514;13.440;2022-12-29T17:29:05;2.90;;;1.30;;
13197;SDS011;6664;52.514;13.440;2022-12-29T17:31:52;1.93;;;1.47;;
13197;SDS011;6664;52.514;13.440;2022-12-29T17:34:39;1.90;;;1.67;;
13197;SDS011;6664;52.514;13.440;2022-12-29T17:37:27;1.73;;;1.63;;
13197;SDS011;6664;52.514;13.440;2022-12-29T17:40:15;2.20;;;1.10;;
13197;SDS011;6664;52.514;13.440;2022-12-29T17:43:02;0.70;;;0.70;;
13197;SDS011;6664;52.514;13.440;2022-12-29T17:45:51;0.70;;;0.70;;
13197;SDS011;6664;52.514;13.440;2022-12-29T17:48:42;2.63;;;1.00;;
13197;SDS011;6664;52.514;13.440;2022-12-29T17:51:35;1.63;;;1.17;;
13197;SDS011;6664;52.514;13.440;2022-12-29T17:54:22;2.00;;;1.07;;
13197;SDS011;6664;52.514;13.440;2022-12-29T17:57:13;1.33;;;1.23;;
13197;SDS011;6664;52.514;13.440;2022-12-29T18:00:03;4.90;;;1.40;;
13197;SDS011;6664;52.514;13.440;2022-12-29T18:02:48;1.27;;;1.17;;
13197;SDS011;6664;52.514;13.440;2022-12-29T18:05:36;1.03;;;1.00;;
13197;SDS011;6664;52.514;13.440;2022-12-29T18:08:22;1.10;;;1.00;;
13197;SDS011;6664;52.514;13.440;2022-12-29T18:11:22;1.43;;;0.90;;
13197;SDS011;6664;52.514;13.440;2022-12-29T18:14:13;2.40;;;1.10;;
13197;SDS011;6664;52.514;13.440;2022-12-29T18:17:00;2.10;;;1.10;;
13197;SDS011;6664;52.514;13.440;2022-12-29T18:19:46;1.37;;;0.93;;
13197;SDS011;6664;52.514;13.440;2022-12-29T18:22:32;3.37;;;0.90;;
13197;SDS011;6664;52.514;13.440;2022-12-29T18:25:24;2.83;;;1.50;;
13197;SDS011;6664;52.514;13.440;2022-12-29T18:28:12;1.13;;;1.03;;
13197;SDS011;6664;52.514;13.440;2022-12-29T18:30:59;1.37;;;1.27;;
13197;SDS011;6664;52.514;13.440;2022-12-29T18:33:50;2.80;;;1.90;;
13197;SDS011;6664;52.514;13.440;2022-12-29T18:36:38;2.63;;;1.73;;
13197;SDS011;6664;52.514;13.440;2022-12-29T18:39:26;1.90;;;1.80;;
13197;SDS011;6664;52.514;13.440;2022-12-29T18:42:15;2.90;;;2.20;;
13197;SDS011;6664;52.514;13.440;2022-12-29T18:45:08;2.40;;;1.80;;
13197;SDS011;6664;52.514;13.440;2022-12-29T18:48:03;4.30;;;3.00;;
13197;SDS011;6664;52.514;13.440;2022-12-29T18:50:49;3.53;;;2.70;;
13197;SDS011;6664;52.514;13.440;2022-12-29T18:53:37;4.37;;;3.10;;
13197;SDS011;6664;52.514;13.440;2022-12-29T18:56:23;9.00;;;3.40;;
13197;SDS011;6664;52.514;13.440;2022-12-29T18:59:08;6.20;;;3.47;;
13197;SDS011;6664;52.514;13.440;2022-12-29T19:01:54;6.00;;;3.53;;
13197;SDS011;6664;52.514;13.440;2022-12-29T19:04:40;6.50;;;3.90;;
13197;SDS011;6664;52.514;13.440;2022-12-29T19:07:25;7.80;;;3.47;;
13197;SDS011;6664;52.514;13.440;2022-12-29T19:10:13;4.03;;;3.03;;
13197;SDS011;6664;52.514;13.440;2022-12-29T19:13:00;5.97;;;3.07;;
13197;SDS011;6664;52.514;13.440;2022-12-29T19:15:45;7.03;;;3.20;;
13197;SDS011;6664;52.514;13.440;2022-12-29T19:18:32;8.60;;;4.13;;
13197;SDS011;6664;52.514;13.440;2022-12-29T19:21:31;5.90;;;4.23;;
13197;SDS011;6664;52.514;13.440;2022-12-29T19:24:17;7.43;;;3.50;;
13197;SDS011;6664;52.514;13.440;2022-12-29T19:27:02;9.63;;;4.80;;
13197;SDS011;6664;52.514;13.440;2022-12-29T19:29:50;5.23;;;3.50;;